createdAt,value
2022-10-07T00:02:39.339Z,2.57
2022-10-07T00:07:39.285Z,2.83
2022-10-07T00:12:41.231Z,3.90
2022-10-07T00:17:41.717Z,6.60
2022-10-07T00:22:42.527Z,3.38
2022-10-07T00:27:43.707Z,3.92
2022-10-07T00:32:43.057Z,4.43
2022-10-07T00:37:47.851Z,2.15
2022-10-07T00:42:46.654Z,4.35
2022-10-07T00:47:49.282Z,2.65
2022-10-07T00:52:55.368Z,6.00
2022-10-07T00:57:57.361Z,2.67
2022-10-07T01:02:58.124Z,3.67
2022-10-07T01:08:01.457Z,4.13
2022-10-07T01:13:38.747Z,2.70
2022-10-07T01:19:32.609Z,4.35
2022-10-07T01:24:51.992Z,3.83
2022-10-07T01:29:57.647Z,2.70
2022-10-07T01:34:56.405Z,4.13
2022-10-07T01:39:58.640Z,3.38
2022-10-07T01:45:01.217Z,3.47
2022-10-07T01:49:59.666Z,3.85
2022-10-07T01:55:06.070Z,8.55
2022-10-07T02:00:11.423Z,2.88
2022-10-07T02:05:35.301Z,2.90
2022-10-07T02:10:39.314Z,4.47
2022-10-07T02:15:55.788Z,2.67
2022-10-07T02:20:55.287Z,3.95
2022-10-07T02:25:55.082Z,3.90
2022-10-07T02:30:56.409Z,6.40
2022-10-07T02:35:58.216Z,4.72
2022-10-07T02:41:13.941Z,4.37
2022-10-07T02:46:30.949Z,4.57
2022-10-07T02:51:37.822Z,3.17
2022-10-07T02:56:41.698Z,7.13
2022-10-07T03:01:47.668Z,10.57
2022-10-07T03:06:49.992Z,4.07
2022-10-07T03:11:52.434Z,8.38
2022-10-07T03:16:52.874Z,8.00
2022-10-07T03:21:52.355Z,5.28
2022-10-07T03:26:54.357Z,7.38
2022-10-07T03:31:57.730Z,5.13
2022-10-07T03:36:55.548Z,7.00
2022-10-07T03:42:01.061Z,8.82
2022-10-07T03:47:08.692Z,4.00
2022-10-07T03:52:10.235Z,9.90
2022-10-07T03:57:29.858Z,3.63
2022-10-07T04:02:32.764Z,7.00
2022-10-07T04:07:33.726Z,7.47
2022-10-07T04:12:35.548Z,8.32
2022-10-07T04:17:36.222Z,3.80
2022-10-07T04:22:36.888Z,9.80
2022-10-07T04:27:51.049Z,7.47
2022-10-07T04:32:56.657Z,15.38
2022-10-07T04:37:58.098Z,14.13
2022-10-07T04:43:20.184Z,8.88
2022-10-07T04:48:27.380Z,21.67
2022-10-07T04:53:28.135Z,5.32
2022-10-07T04:58:29.884Z,9.02
2022-10-07T05:03:36.216Z,6.38
2022-10-07T05:08:34.862Z,18.50
2022-10-07T05:13:34.416Z,11.13
2022-10-07T05:18:34.567Z,7.82
2022-10-07T05:23:38.442Z,14.35
2022-10-07T05:28:47.557Z,9.27
2022-10-07T05:33:50.169Z,10.18
2022-10-07T05:38:59.731Z,5.20
2022-10-07T05:44:10.527Z,9.02
2022-10-07T05:49:12.881Z,7.28
2022-10-07T05:54:14.058Z,9.85
2022-10-07T05:59:15.717Z,4.90
2022-10-07T06:04:16.961Z,12.88
2022-10-07T06:09:37.906Z,6.38
2022-10-07T06:14:44.539Z,16.92
2022-10-07T06:19:46.492Z,15.00
2022-10-07T06:24:47.037Z,8.95
2022-10-07T06:29:47.457Z,24.15
2022-10-07T06:34:47.205Z,9.85
2022-10-07T06:39:46.321Z,11.27
2022-10-07T06:44:48.339Z,12.32
2022-10-07T06:49:50.201Z,8.73
2022-10-07T06:54:52.127Z,8.50
2022-10-07T06:59:55.518Z,20.77
2022-10-07T07:04:57.560Z,42.38
2022-10-07T07:09:57.475Z,7.70
2022-10-07T07:14:56.985Z,14.85
2022-10-07T07:19:55.661Z,12.63
2022-10-07T07:24:55.600Z,11.80
2022-10-07T07:29:59.047Z,9.93
2022-10-07T07:35:00.732Z,8.00
2022-10-07T07:40:00.909Z,10.35
2022-10-07T07:45:01.599Z,12.27
2022-10-07T07:50:01.574Z,9.95
2022-10-07T07:55:03.311Z,14.38
2022-10-07T08:00:02.219Z,10.52
2022-10-07T08:05:04.511Z,9.23
2022-10-07T08:10:04.748Z,8.98
2022-10-07T08:15:05.371Z,10.68
2022-10-07T08:20:12.980Z,7.93
2022-10-07T08:25:14.057Z,8.80
2022-10-07T08:30:15.689Z,9.32
2022-10-07T08:35:20.924Z,8.48
2022-10-07T08:40:19.060Z,5.50
2022-10-07T08:45:35.448Z,6.85
2022-10-07T08:51:24.708Z,8.15
2022-10-07T08:56:24.062Z,9.80
2022-10-07T09:01:48.863Z,6.43
2022-10-07T09:06:55.422Z,14.45
2022-10-07T09:11:54.923Z,6.63
2022-10-07T09:17:07.126Z,7.85
2022-10-07T09:22:36.283Z,8.10
2022-10-07T09:27:34.004Z,14.48
2022-10-07T09:32:46.308Z,7.32
2022-10-07T09:38:11.579Z,10.57
2022-10-07T09:43:14.155Z,10.98
2022-10-07T09:48:19.431Z,11.20
2022-10-07T09:53:24.269Z,8.63
2022-10-07T09:58:26.499Z,7.68
2022-10-07T10:03:35.597Z,10.35
2022-10-07T10:08:37.489Z,7.75
2022-10-07T10:13:40.711Z,7.28
2022-10-07T10:19:04.869Z,6.95
2022-10-07T10:24:06.812Z,17.25
2022-10-07T10:29:30.015Z,8.65
2022-10-07T10:34:41.899Z,7.70
2022-10-07T10:39:42.820Z,6.00
2022-10-07T10:45:08.255Z,9.65
2022-10-07T10:50:18.823Z,4.90
2022-10-07T10:55:35.342Z,7.53
2022-10-07T11:01:24.514Z,3.83
2022-10-07T11:06:26.820Z,6.18
2022-10-07T11:11:28.621Z,3.17
2022-10-07T11:16:33.442Z,11.57
2022-10-07T11:21:53.879Z,4.65
2022-10-07T11:27:20.793Z,8.05
2022-10-07T11:32:29.638Z,2.78
2022-10-07T11:37:44.190Z,6.65
2022-10-07T11:42:44.724Z,6.45
2022-10-07T11:48:02.542Z,4.28
2022-10-07T11:53:22.796Z,5.50
2022-10-07T11:58:40.249Z,5.68
2022-10-07T12:03:38.156Z,5.97
2022-10-07T12:08:44.844Z,3.88
2022-10-07T12:13:45.555Z,5.75
2022-10-07T12:19:08.033Z,6.10
2022-10-07T12:24:15.819Z,7.35
2022-10-07T12:29:37.835Z,6.15
2022-10-07T12:34:44.300Z,6.45
2022-10-07T12:39:42.902Z,9.52
2022-10-07T12:44:47.399Z,10.32
2022-10-07T12:50:00.637Z,13.65
2022-10-07T13:00:11.552Z,7.10
2022-10-07T13:05:25.496Z,5.30
2022-10-07T13:10:58.408Z,7.15
2022-10-07T13:16:05.589Z,4.20
2022-10-07T13:21:13.291Z,3.35
2022-10-07T13:26:12.331Z,9.32
2022-10-07T13:31:21.466Z,6.45
2022-10-07T13:36:28.154Z,3.63
2022-10-07T13:41:32.585Z,2.83
2022-10-07T13:46:33.814Z,7.05
2022-10-07T13:51:43.933Z,4.45
2022-10-07T13:56:42.707Z,3.50
2022-10-07T14:01:40.529Z,4.43
2022-10-07T14:06:59.185Z,3.53
2022-10-07T14:12:00.972Z,4.97
2022-10-07T14:16:59.799Z,5.05
2022-10-07T14:22:01.747Z,4.97
2022-10-07T14:27:02.779Z,6.75
2022-10-07T14:32:40.419Z,8.60
2022-10-07T14:37:41.539Z,5.03
2022-10-07T14:42:40.820Z,6.93
2022-10-07T14:47:39.174Z,7.00
2022-10-07T14:53:56.397Z,4.13
2022-10-07T14:58:57.897Z,6.65
2022-10-07T15:04:00.200Z,6.03
2022-10-07T15:08:59.658Z,4.13
2022-10-07T15:14:01.934Z,7.32
2022-10-07T15:19:10.735Z,4.78
2022-10-07T15:24:13.186Z,5.07
2022-10-07T15:29:13.483Z,7.32
2022-10-07T15:34:14.682Z,4.43
2022-10-07T15:39:15.962Z,8.50
2022-10-07T15:44:18.393Z,4.65
2022-10-07T15:49:19.677Z,6.50
2022-10-07T15:54:21.451Z,9.77
2022-10-07T15:59:21.022Z,6.20
2022-10-07T16:04:20.512Z,7.30
2022-10-07T16:09:22.331Z,5.00
2022-10-07T16:14:22.586Z,5.63
2022-10-07T16:19:22.268Z,18.85
2022-10-07T16:24:24.765Z,4.80
2022-10-07T16:29:46.872Z,7.55
2022-10-07T16:34:47.594Z,6.10
2022-10-07T16:39:45.126Z,4.93
2022-10-07T16:50:10.936Z,13.52
2022-10-07T16:55:09.396Z,13.75
2022-10-07T17:00:08.350Z,11.43
2022-10-07T17:05:06.261Z,13.80
2022-10-07T17:10:04.582Z,11.10
2022-10-07T17:15:03.314Z,10.35
2022-10-07T17:20:02.989Z,12.50
2022-10-07T17:25:03.365Z,14.07
2022-10-07T17:30:01.215Z,15.50
2022-10-07T17:35:00.055Z,10.55
2022-10-07T17:39:59.355Z,8.65
2022-10-07T17:44:58.316Z,10.77
2022-10-07T17:49:56.962Z,16.90
2022-10-07T17:54:57.558Z,10.40
2022-10-07T18:00:05.563Z,8.55
2022-10-07T18:10:18.846Z,9.07
2022-10-07T18:15:20.415Z,12.32
2022-10-07T18:20:24.152Z,13.25
2022-10-07T18:25:22.641Z,14.15
2022-10-07T18:30:22.420Z,11.98
2022-10-07T18:35:22.794Z,13.52
2022-10-07T18:40:25.467Z,11.13
2022-10-07T18:45:23.714Z,16.13
2022-10-07T18:50:22.906Z,14.75
2022-10-07T18:55:24.026Z,18.48
2022-10-07T19:00:22.641Z,15.88
2022-10-07T19:05:21.038Z,22.30
2022-10-07T19:10:19.626Z,25.17
2022-10-07T19:15:20.868Z,25.85
2022-10-07T19:20:21.846Z,19.05
2022-10-07T19:25:43.390Z,19.67
2022-10-07T19:30:45.368Z,19.00
2022-10-07T19:35:47.485Z,18.88
2022-10-07T19:40:50.571Z,21.77
2022-10-07T19:45:51.783Z,19.23
2022-10-07T19:50:57.067Z,23.13
2022-10-07T19:55:55.379Z,23.67
2022-10-07T20:01:06.343Z,15.85
2022-10-07T20:06:08.770Z,15.30
2022-10-07T20:11:12.953Z,20.63
2022-10-07T20:16:16.811Z,21.95
2022-10-07T20:26:30.462Z,14.70
2022-10-07T20:31:31.373Z,14.50
2022-10-07T20:36:32.907Z,22.35
2022-10-07T20:41:50.501Z,16.85
2022-10-07T20:46:52.168Z,13.90
2022-10-07T20:52:03.682Z,13.70
2022-10-07T20:57:05.489Z,18.90
2022-10-07T21:02:09.473Z,14.00
2022-10-07T21:07:12.569Z,19.25
2022-10-07T21:12:15.837Z,12.10
2022-10-07T21:17:20.330Z,20.45
2022-10-07T21:22:20.785Z,15.00
2022-10-07T21:27:24.336Z,21.17
2022-10-07T21:32:24.705Z,13.55
2022-10-07T21:37:26.329Z,22.42
2022-10-07T21:42:27.478Z,15.50
2022-10-07T21:47:26.091Z,15.10
2022-10-07T21:52:28.282Z,17.67
2022-10-07T21:57:29.272Z,20.42
2022-10-07T22:02:47.752Z,16.20
2022-10-07T22:08:18.162Z,15.93
2022-10-07T22:13:22.835Z,16.15
2022-10-07T22:23:36.700Z,16.95
2022-10-07T22:28:38.971Z,16.85
2022-10-07T22:34:08.077Z,20.40
2022-10-07T22:39:14.070Z,15.85
2022-10-07T22:44:19.130Z,16.67
2022-10-07T22:49:22.302Z,16.65
2022-10-07T23:12:36.088Z,21.08
2022-10-07T23:17:42.118Z,19.13
2022-10-07T23:22:54.032Z,17.70
2022-10-07T23:27:56.341Z,17.42
2022-10-07T23:32:58.318Z,20.13
2022-10-07T23:38:00.885Z,15.45
2022-10-07T23:42:59.667Z,22.27
2022-10-07T23:48:05.024Z,21.30
2022-10-07T23:53:08.244Z,13.57
2022-10-07T23:58:12.438Z,14.40
